Pagrindinis puslapis
METAR-TAF:

METAR-TAF

Oro uostai :

Al Wajh, Saudo Arabija

platuma: 26-12N, ilguma: 036-28E, Aukštis: 20 m

Dabartinis oras

Ataskaita buvo paskelbta 1 valandą ir 18 minutes, ne 07:00 UTC
Vėjas 13 kt iš Vakarų/Šiaurės Vakarų
Temperatūra 31°C
Drėgmė 79%
Slėgis 1002 hPa
Matomumas 10 km arba daugiau
nėra debesų žemiau 1500 m ir nėra kamuolinių lietaus debesų

METAR: OEWJ 170700Z 29013KT CAVOK 31/27 Q1002 NOSIG

Laikas: 11:18 (08:18 UTC)

Prognozė

Ataskaita buvo paskelbta 9 valandos ir 18 minutes, ne 23:00 UTC
Prognozė galioja nuo 17 metu 00 UTC su 18 metu 06 UTC
Vėjas 6 kt iš Šiaurės/Šiaurės Vakarų
Matomumas 10 km arba daugiau
nėra debesų žemiau 1500 m ir nėra kamuolinių lietaus debesų
Tapsmas
nuo 17 metu 08 UTC su 17 metu 10 UTC
Vėjas 16 kt iš Šiaurės/Šiaurės Vakarų
Matomumas 10 km arba daugiau
Mažai debesys ne aukštis 4000 ft
Tapsmas
nuo 17 metu 18 UTC su 17 metu 20 UTC
Vėjas 6 kt iš Šiaurės/Šiaurės Vakarų

TAF: OEWJ 162300Z 1700/1806 33006KT CAVOK BECMG 1708/1710 33016KT 9999 FEW040 BECMG 1718/1720 33006KT

Orai ataskaitas ir orų prognozės (METAR, TAF).

turimą stotys yra geltonos ir raudonos taškus žemėlapyje.

Perkelti pele per norėdami pamatyti stoties vardą.

Tada spustelėkite, norėdami matyti oro stebėjimo ir prognozės.

Norėdami pakeisti žemėlapį: spustelėkite ant žalios mygtukų su juodo kryžiaus žemyn,; žalią mygtuką su brūkšneliu, jei norite nutolinti; arba žalių rodyklių gretimoms žemėlapius.


METAR-TAF: